AXB511 OMDB-VABB
Flight info
| Callsign | AXB511 |
|---|---|
| Flight time | N/A |
| Altitude | 37000 |
| Route | IVURO M677 LALDO B505 NADSO A777 VAXIM L301 KARKU M638 EXOLU POKON2A |
| Aircraft | B38M/M-SDE1FGHILORVWXY/HB1 |
Departure
| Time | 2026-04-25 12:27 |
|---|---|
| Airport | Dubai International Airport (OMDB) |
Arrival
| Time | N/A |
|---|---|
| Airport | Chhatrapati Shivaji Maharaj International Airport (VABB) |
| Time | Latitude | Longitude | Altitude | Speed | Heading |
|---|---|---|---|---|---|
| 2026-04-25 11:49 | 25.26591 | 55.35554 | 25 ft | 0 kts | 31° |
| 2026-04-25 12:12 | 25.26585 | 55.35550 | 25 ft | 4 kts | 31° |
| 2026-04-25 12:12 | 25.26570 | 55.35540 | 29 ft | 4 kts | 29° |
| 2026-04-25 12:12 | 25.26536 | 55.35527 | 26 ft | 4 kts | 5° |
| 2026-04-25 12:12 | 25.26512 | 55.35530 | 28 ft | 4 kts | 325° |
| 2026-04-25 12:13 | 25.26502 | 55.35541 | 29 ft | 1 kts | 302° |
| 2026-04-25 12:13 | 25.26501 | 55.35543 | 29 ft | 0 kts | 302° |
| 2026-04-25 12:15 | 25.26502 | 55.35542 | 29 ft | 0 kts | 307° |
| 2026-04-25 12:15 | 25.26505 | 55.35542 | 29 ft | 0 kts | 345° |
| 2026-04-25 12:16 | 25.26506 | 55.35543 | 29 ft | 0 kts | 6° |
| 2026-04-25 12:16 | 25.26507 | 55.35545 | 29 ft | 1 kts | 31° |
| 2026-04-25 12:16 | 25.26507 | 55.35552 | 29 ft | 0 kts | 113° |
| 2026-04-25 12:20 | 25.26496 | 55.35574 | 26 ft | 9 kts | 121° |
| 2026-04-25 12:21 | 25.26429 | 55.35684 | 26 ft | 25 kts | 124° |
| 2026-04-25 12:21 | 25.26304 | 55.35896 | 29 ft | 40 kts | 123° |
| 2026-04-25 12:21 | 25.26149 | 55.36168 | 25 ft | 37 kts | 123° |
| 2026-04-25 12:21 | 25.26004 | 55.36330 | 27 ft | 25 kts | 155° |
| 2026-04-25 12:22 | 25.25883 | 55.36473 | 25 ft | 27 kts | 123° |
| 2026-04-25 12:22 | 25.25780 | 55.36653 | 25 ft | 29 kts | 123° |
| 2026-04-25 12:22 | 25.25670 | 55.36847 | 25 ft | 31 kts | 122° |
| 2026-04-25 12:22 | 25.25548 | 55.37064 | 26 ft | 36 kts | 121° |
| 2026-04-25 12:23 | 25.25408 | 55.37315 | 27 ft | 41 kts | 122° |
| 2026-04-25 12:23 | 25.25251 | 55.37594 | 27 ft | 45 kts | 122° |
| 2026-04-25 12:23 | 25.25078 | 55.37899 | 24 ft | 44 kts | 122° |
| 2026-04-25 12:23 | 25.25012 | 55.38015 | 25 ft | 1 kts | 122° |
| 2026-04-25 12:24 | 25.24999 | 55.38039 | 26 ft | 10 kts | 119° |
| 2026-04-25 12:24 | 25.24940 | 55.38117 | 28 ft | 9 kts | 164° |
| 2026-04-25 12:24 | 25.24911 | 55.38115 | 25 ft | 0 kts | 201° |
| 2026-04-25 12:26 | 25.24886 | 55.38103 | 24 ft | 12 kts | 204° |
| 2026-04-25 12:26 | 25.24820 | 55.38040 | 24 ft | 1 kts | 250° |
| 2026-04-25 12:26 | 25.24835 | 55.37974 | 24 ft | 11 kts | 298° |
| 2026-04-25 12:26 | 25.25017 | 55.37646 | 25 ft | 94 kts | 301° |
| 2026-04-25 12:27 | 25.25501 | 55.36809 | 119 ft | 157 kts | 304° |
| 2026-04-25 12:27 | 25.26190 | 55.35755 | 829 ft | 176 kts | 307° |
| 2026-04-25 12:27 | 25.26973 | 55.34620 | 1636 ft | 201 kts | 308° |
| 2026-04-25 12:27 | 25.27910 | 55.33263 | 2193 ft | 231 kts | 307° |
| 2026-04-25 12:28 | 25.28706 | 55.31709 | 2939 ft | 235 kts | 298° |
| 2026-04-25 12:28 | 25.29672 | 55.30258 | 3386 ft | 248 kts | 321° |
| 2026-04-25 12:28 | 25.31259 | 55.29511 | 3427 ft | 253 kts | 355° |
| 2026-04-25 12:28 | 25.33045 | 55.29566 | 3569 ft | 260 kts | 359° |
| 2026-04-25 12:29 | 25.34879 | 55.29606 | 3669 ft | 264 kts | 359° |
| 2026-04-25 12:29 | 25.36718 | 55.29649 | 3761 ft | 264 kts | 360° |
| 2026-04-25 12:29 | 25.38564 | 55.29713 | 3842 ft | 266 kts | 5° |
| 2026-04-25 12:29 | 25.40276 | 55.30449 | 3820 ft | 267 kts | 37° |
| 2026-04-25 12:30 | 25.41489 | 55.31981 | 3897 ft | 272 kts | 51° |
| 2026-04-25 12:30 | 25.42672 | 55.33628 | 3882 ft | 273 kts | 50° |
| 2026-04-25 12:30 | 25.43868 | 55.35265 | 3876 ft | 272 kts | 49° |
| 2026-04-25 12:30 | 25.45060 | 55.36894 | 4034 ft | 273 kts | 49° |
| 2026-04-25 12:31 | 25.46243 | 55.38510 | 4287 ft | 274 kts | 48° |
| 2026-04-25 12:31 | 25.47450 | 55.40159 | 4525 ft | 276 kts | 49° |
| 2026-04-25 12:31 | 25.48604 | 55.41868 | 4738 ft | 279 kts | 62° |
| 2026-04-25 12:31 | 25.49031 | 55.43945 | 4935 ft | 281 kts | 91° |
| 2026-04-25 12:32 | 25.48654 | 55.46068 | 5192 ft | 284 kts | 107° |
| 2026-04-25 12:32 | 25.48131 | 55.48204 | 5439 ft | 287 kts | 104° |
| 2026-04-25 12:32 | 25.47634 | 55.50344 | 5705 ft | 289 kts | 104° |
| 2026-04-25 12:32 | 25.47130 | 55.52564 | 5947 ft | 306 kts | 104° |
| 2026-04-25 12:33 | 25.46608 | 55.54896 | 6172 ft | 324 kts | 104° |
| 2026-04-25 12:33 | 25.46054 | 55.57383 | 6409 ft | 342 kts | 104° |
| 2026-04-25 12:33 | 25.45472 | 55.60004 | 6637 ft | 358 kts | 104° |
| 2026-04-25 12:33 | 25.44862 | 55.62742 | 6868 ft | 371 kts | 104° |
| 2026-04-25 12:34 | 25.44230 | 55.65556 | 7091 ft | 381 kts | 104° |
| 2026-04-25 12:34 | 25.43584 | 55.68425 | 7335 ft | 387 kts | 104° |
| 2026-04-25 12:34 | 25.42926 | 55.71325 | 7582 ft | 388 kts | 105° |
| 2026-04-25 12:34 | 25.42711 | 55.72264 | 7658 ft | 389 kts | 105° |
| 2026-04-25 12:35 | 25.41604 | 55.77108 | 8064 ft | 392 kts | 105° |
| 2026-04-25 12:35 | 25.40935 | 55.80035 | 8318 ft | 392 kts | 105° |
| 2026-04-25 12:35 | 25.40262 | 55.82965 | 8570 ft | 394 kts | 105° |
| 2026-04-25 12:35 | 25.39811 | 55.84931 | 8731 ft | 396 kts | 105° |
| 2026-04-25 12:36 | 25.38904 | 55.88882 | 9080 ft | 397 kts | 105° |
| 2026-04-25 12:36 | 25.38455 | 55.90840 | 9241 ft | 398 kts | 107° |
| 2026-04-25 12:36 | 25.37771 | 55.93812 | 9505 ft | 401 kts | 106° |
| 2026-04-25 12:36 | 25.37082 | 55.96800 | 9759 ft | 400 kts | 105° |
| 2026-04-25 12:37 | 25.36394 | 55.99784 | 9993 ft | 401 kts | 107° |
| 2026-04-25 12:37 | 25.35703 | 56.02778 | 10227 ft | 403 kts | 107° |
| 2026-04-25 12:37 | 25.35008 | 56.05787 | 10473 ft | 404 kts | 107° |
| 2026-04-25 12:37 | 25.34309 | 56.08808 | 10705 ft | 403 kts | 107° |
| 2026-04-25 12:38 | 25.33622 | 56.11776 | 10949 ft | 405 kts | 107° |
| 2026-04-25 12:38 | 25.32931 | 56.14769 | 11186 ft | 407 kts | 106° |
| 2026-04-25 12:38 | 25.32566 | 56.17851 | 11424 ft | 399 kts | 97° |
| 2026-04-25 12:38 | 25.32326 | 56.20866 | 11779 ft | 390 kts | 97° |
| 2026-04-25 12:39 | 25.32079 | 56.23859 | 12298 ft | 389 kts | 98° |
| 2026-04-25 12:39 | 25.31835 | 56.26799 | 12799 ft | 389 kts | 98° |
| 2026-04-25 12:39 | 25.31587 | 56.29786 | 13310 ft | 392 kts | 98° |
| 2026-04-25 12:39 | 25.31334 | 56.32796 | 13811 ft | 391 kts | 97° |
| 2026-04-25 12:40 | 25.31084 | 56.35786 | 14264 ft | 393 kts | 97° |
| 2026-04-25 12:40 | 25.30835 | 56.38817 | 14727 ft | 396 kts | 95° |
| 2026-04-25 12:40 | 25.30743 | 56.41881 | 15201 ft | 401 kts | 93° |